Time;durP1;ratioP1;P1;durP2;ratioP2;P2;SDS_P1;SDS_P2;PMS_P1;PMS_P2;Temp;Humidity;BMP_temperature;BMP_pressure;BME280_temperature;BME280_humidity;BME280_pressure;Samples;Min_cycle;Max_cycle;Signal;HPM_P1;HPM_P2
2021/04/24 00:01:18;;;;;;;16.48;7.20;;;6.30;99.90;;;;;;5052840;28;20380;-57
2021/04/24 00:03:44;;;;;;;13.38;5.95;;;6.10;99.90;;;;;;5052626;28;21156;-56
2021/04/24 00:06:10;;;;;;;12.67;6.27;;;6.00;99.90;;;;;;5065033;28;20895;-57
2021/04/24 00:08:37;;;;;;;13.40;7.18;;;6.00;99.90;;;;;;5072247;28;20444;-57
2021/04/24 00:11:04;;;;;;;13.20;6.90;;;5.80;99.90;;;;;;5068640;28;20396;-57
2021/04/24 00:13:29;;;;;;;16.83;8.18;;;5.90;99.90;;;;;;5057426;28;20406;-58
2021/04/24 00:15:55;;;;;;;14.50;7.45;;;5.90;99.90;;;;;;5059516;28;20384;-56
2021/04/24 00:18:21;;;;;;;15.33;7.57;;;5.90;99.90;;;;;;5069691;28;20391;-56
2021/04/24 00:20:47;;;;;;;12.63;6.53;;;5.90;99.90;;;;;;5052593;28;20892;-57
2021/04/24 00:23:14;;;;;;;12.43;6.63;;;5.90;99.90;;;;;;5052836;28;20409;-57
2021/04/24 00:25:40;;;;;;;16.92;7.90;;;5.80;99.90;;;;;;5049949;28;21256;-58
2021/04/24 00:28:08;;;;;;;13.57;6.80;;;5.80;99.90;;;;;;5052506;28;20393;-57
2021/04/24 00:30:34;;;;;;;13.98;7.18;;;5.80;99.90;;;;;;5071516;28;20403;-57
2021/04/24 00:33:00;;;;;;;15.25;7.35;;;5.80;99.90;;;;;;5071520;28;20905;-56
2021/04/24 00:35:25;;;;;;;13.20;7.10;;;5.80;99.90;;;;;;5071284;28;20380;-57
2021/04/24 00:37:52;;;;;;;14.43;7.35;;;5.70;99.90;;;;;;5072343;28;20468;-56
2021/04/24 00:40:18;;;;;;;16.52;7.07;;;5.60;99.90;;;;;;5072292;28;20465;-57
2021/04/24 00:42:46;;;;;;;14.90;7.00;;;5.70;99.90;;;;;;5071661;28;20400;-57
2021/04/24 00:45:15;;;;;;;12.40;7.00;;;5.70;99.90;;;;;;5071934;28;20444;-57
2021/04/24 00:47:41;;;;;;;14.43;7.07;;;5.80;99.90;;;;;;5068920;28;20936;-57
2021/04/24 00:50:09;;;;;;;12.75;6.45;;;5.80;99.90;;;;;;5052110;28;20773;-56
2021/04/24 00:52:36;;;;;;;18.23;7.18;;;5.70;99.90;;;;;;5050917;28;20437;-56
2021/04/24 00:55:03;;;;;;;14.48;7.05;;;5.80;99.90;;;;;;5051782;28;20373;-56
2021/04/24 00:57:29;;;;;;;10.53;6.50;;;5.70;99.90;;;;;;5050763;28;20986;-56
2021/04/24 00:59:56;;;;;;;14.10;7.70;;;5.70;99.90;;;;;;5052002;28;20386;-56
2021/04/24 01:02:22;;;;;;;14.65;6.80;;;5.70;99.90;;;;;;5050926;28;20416;-57
2021/04/24 01:04:47;;;;;;;13.77;6.90;;;5.80;99.90;;;;;;5051443;28;20409;-57
2021/04/24 01:07:14;;;;;;;12.85;6.50;;;5.60;99.90;;;;;;5051876;28;20385;-57
2021/04/24 01:09:41;;;;;;;13.30;6.75;;;5.60;99.90;;;;;;5050817;28;20464;-56
2021/04/24 01:12:06;;;;;;;17.05;7.65;;;5.50;99.90;;;;;;5051588;28;20439;-57
2021/04/24 01:14:32;;;;;;;11.95;6.65;;;5.40;99.90;;;;;;5050627;28;20819;-56
2021/04/24 01:16:58;;;;;;;18.43;7.20;;;5.30;99.90;;;;;;5051428;28;20777;-58
2021/04/24 01:19:25;;;;;;;12.18;6.65;;;5.30;99.90;;;;;;5050736;28;20878;-58
2021/04/24 01:21:52;;;;;;;17.33;7.97;;;5.20;99.90;;;;;;5051426;28;20417;-58
2021/04/24 01:24:19;;;;;;;16.70;7.75;;;5.20;99.90;;;;;;5051116;28;20497;-58
2021/04/24 01:26:46;;;;;;;16.63;7.90;;;5.20;99.90;;;;;;5051149;28;20390;-58
2021/04/24 01:29:12;;;;;;;15.93;7.60;;;5.80;99.90;;;;;;5051180;28;20827;-59
2021/04/24 01:31:38;;;;;;;14.47;7.40;;;5.10;99.90;;;;;;5050205;28;20431;-55
2021/04/24 01:34:07;;;;;;;15.63;8.13;;;5.00;99.90;;;;;;5051182;28;20409;-58
2021/04/24 01:36:33;;;;;;;17.27;8.63;;;7.20;99.90;;;;;;5049902;28;20378;-58
2021/04/24 01:38:59;;;;;;;16.80;8.15;;;5.90;99.90;;;;;;5050870;28;20443;-57
2021/04/24 01:41:25;;;;;;;18.60;8.47;;;5.20;99.90;;;;;;5050358;28;20386;-55
2021/04/24 01:43:55;;;;;;;18.08;8.85;;;4.80;99.90;;;;;;5051302;28;20385;-55
2021/04/24 01:46:22;;;;;;;21.33;8.70;;;4.60;99.90;;;;;;5050450;28;20377;-55
2021/04/24 01:48:50;;;;;;;16.87;8.37;;;6.20;99.90;;;;;;5050873;28;20385;-55
2021/04/24 01:51:18;;;;;;;17.55;8.70;;;4.20;99.90;;;;;;5050911;28;20385;-56
2021/04/24 01:53:44;;;;;;;18.27;8.80;;;4.30;99.90;;;;;;5049467;28;20488;-55
2021/04/24 01:56:11;;;;;;;20.30;8.97;;;4.30;99.90;;;;;;5050401;28;20836;-56
2021/04/24 01:58:37;;;;;;;18.15;8.00;;;4.60;99.90;;;;;;5049953;28;20400;-55
2021/04/24 02:01:09;;;;;;;19.10;8.43;;;4.40;99.90;;;;;;5051110;28;20731;-57
2021/04/24 02:03:34;;;;;;;16.92;8.52;;;6.10;99.90;;;;;;5049569;28;20381;-56
2021/04/24 02:06:00;;;;;;;15.53;8.10;;;4.20;99.90;;;;;;5050517;28;20443;-59
2021/04/24 02:08:34;;;;;;;17.48;8.20;;;6.20;99.90;;;;;;5049799;28;20735;-55
2021/04/24 02:11:01;;;;;;;16.00;7.75;;;4.10;99.90;;;;;;5050367;28;20868;-56
2021/04/24 02:13:33;;;;;;;18.77;7.95;;;4.10;99.90;;;;;;5049628;28;20401;-55
2021/04/24 02:15:59;;;;;;;16.33;8.02;;;4.10;99.90;;;;;;5050539;28;20374;-56
2021/04/24 02:18:26;;;;;;;17.80;7.25;;;4.20;99.90;;;;;;5049865;28;20381;-55
2021/04/24 02:20:52;;;;;;;15.70;7.93;;;4.30;99.90;;;;;;5050537;28;20878;-55
2021/04/24 02:23:18;;;;;;;15.77;8.20;;;4.30;99.90;;;;;;5050293;28;20420;-56
2021/04/24 02:25:46;;;;;;;17.27;7.38;;;4.20;99.90;;;;;;5049584;28;20396;-56
2021/04/24 02:28:12;;;;;;;14.45;7.72;;;4.20;99.90;;;;;;5050134;28;20497;-56
2021/04/24 02:30:38;;;;;;;15.05;7.40;;;5.40;99.90;;;;;;5049291;28;20447;-55
2021/04/24 02:33:05;;;;;;;16.83;6.90;;;4.30;99.90;;;;;;5050228;28;20409;-56
2021/04/24 02:36:00;;;;;;;15.52;7.13;;;4.20;99.90;;;;;;5049201;28;20451;-56
2021/04/24 02:38:28;;;;;;;14.63;7.50;;;4.10;99.90;;;;;;5049306;28;20384;-55
2021/04/24 02:40:56;;;;;;;14.17;7.20;;;4.80;99.90;;;;;;5050125;28;20381;-55
2021/04/24 02:43:22;;;;;;;13.65;7.05;;;4.80;99.90;;;;;;5049296;28;20458;-55
2021/04/24 02:45:48;;;;;;;16.55;7.50;;;5.30;99.90;;;;;;5049692;28;20395;-55
2021/04/24 02:48:15;;;;;;;15.27;7.32;;;4.30;99.90;;;;;;5048494;28;20393;-56
2021/04/24 02:50:42;;;;;;;14.23;7.13;;;4.30;99.90;;;;;;5070091;28;20463;-57
2021/04/24 02:53:07;;;;;;;16.77;7.40;;;4.40;99.90;;;;;;5071112;28;20815;-56
2021/04/24 02:55:33;;;;;;;16.57;8.00;;;4.30;99.90;;;;;;5068366;28;20392;-56
2021/04/24 02:57:59;;;;;;;17.80;7.55;;;4.30;99.90;;;;;;5069667;28;20732;-56
2021/04/24 03:00:26;;;;;;;12.68;7.40;;;4.30;99.90;;;;;;5069172;28;20391;-55
2021/04/24 03:03:08;;;;;;;15.90;7.75;;;4.50;99.90;;;;;;5069750;28;20414;-56
2021/04/24 03:05:35;;;;;;;14.35;7.70;;;4.20;99.90;;;;;;5067681;28;20379;-55
2021/04/24 03:08:03;;;;;;;15.57;7.10;;;4.10;99.90;;;;;;5069978;28;20368;-55
2021/04/24 03:10:29;;;;;;;14.25;7.13;;;4.00;99.90;;;;;;5069105;28;20380;-55
2021/04/24 03:12:55;;;;;;;14.63;8.05;;;3.90;99.90;;;;;;5069713;28;20411;-55
2021/04/24 03:15:21;;;;;;;13.77;7.25;;;3.90;99.90;;;;;;5068576;28;20483;-56
2021/04/24 03:17:47;;;;;;;17.08;8.15;;;3.90;99.90;;;;;;5069676;28;20511;-56
2021/04/24 03:20:15;;;;;;;17.88;8.45;;;3.90;99.90;;;;;;5069634;28;20388;-55
2021/04/24 03:22:41;;;;;;;15.80;7.30;;;3.90;99.90;;;;;;5068902;28;20398;-55
2021/04/24 03:25:08;;;;;;;15.25;7.45;;;3.80;99.90;;;;;;5069451;28;20415;-56
2021/04/24 03:27:34;;;;;;;15.80;7.43;;;3.80;99.90;;;;;;5068976;28;20506;-55
2021/04/24 03:29:59;;;;;;;13.15;7.00;;;4.40;99.90;;;;;;5069284;28;20466;-55
2021/04/24 03:32:26;;;;;;;17.90;7.40;;;3.90;99.90;;;;;;5068512;28;20371;-55
2021/04/24 03:34:51;;;;;;;15.30;7.32;;;3.90;99.90;;;;;;5069161;28;20530;-56
2021/04/24 03:37:17;;;;;;;15.57;7.13;;;4.00;99.90;;;;;;5069609;28;20911;-56
2021/04/24 03:39:43;;;;;;;13.10;7.23;;;4.80;99.90;;;;;;5069152;28;20497;-55
2021/04/24 03:42:11;;;;;;;13.03;6.87;;;4.00;99.90;;;;;;5069816;28;20497;-56
2021/04/24 03:44:36;;;;;;;13.98;7.95;;;3.90;99.90;;;;;;5068679;28;20383;-55
2021/04/24 03:47:02;;;;;;;16.10;7.83;;;4.10;99.90;;;;;;5068060;28;20714;-56
2021/04/24 03:49:28;;;;;;;16.83;7.50;;;3.80;99.90;;;;;;5068658;28;20380;-55
2021/04/24 03:51:53;;;;;;;14.52;7.32;;;5.90;99.90;;;;;;5069174;28;20375;-56
2021/04/24 03:54:19;;;;;;;15.90;7.77;;;3.80;99.90;;;;;;5067820;28;20931;-56
2021/04/24 03:56:44;;;;;;;14.43;7.57;;;3.80;99.90;;;;;;5068567;28;20376;-56
2021/04/24 03:59:10;;;;;;;20.00;8.50;;;5.60;99.90;;;;;;5069070;28;20396;-56
2021/04/24 04:01:36;;;;;;;16.05;7.22;;;4.70;99.90;;;;;;5071035;28;20379;-56
2021/04/24 04:04:01;;;;;;;14.37;7.57;;;3.60;99.90;;;;;;5072562;28;20388;-56
2021/04/24 04:06:27;;;;;;;15.90;7.53;;;3.70;99.90;;;;;;5072139;28;20399;-55
2021/04/24 04:08:53;;;;;;;16.87;8.10;;;3.70;99.90;;;;;;5072319;28;20392;-56
2021/04/24 04:11:18;;;;;;;15.77;8.03;;;3.70;99.90;;;;;;5072441;28;20435;-56
2021/04/24 04:13:44;;;;;;;13.10;6.75;;;3.70;99.90;;;;;;5072128;28;20507;-56
2021/04/24 04:16:10;;;;;;;16.23;7.33;;;3.60;99.90;;;;;;5072705;28;20392;-56
2021/04/24 04:18:36;;;;;;;14.57;7.20;;;4.30;99.90;;;;;;5071504;28;20392;-55
2021/04/24 04:21:04;;;;;;;15.98;7.47;;;3.80;99.90;;;;;;5072765;28;20474;-56
2021/04/24 04:23:30;;;;;;;15.65;7.43;;;3.50;99.90;;;;;;5071453;28;20733;-55
2021/04/24 04:25:57;;;;;;;15.80;7.43;;;3.90;99.90;;;;;;5072497;28;20487;-56
2021/04/24 04:28:23;;;;;;;15.07;7.30;;;4.00;99.90;;;;;;5072100;28;20425;-55
2021/04/24 04:30:49;;;;;;;18.15;7.05;;;3.50;99.90;;;;;;5072206;28;20376;-56
2021/04/24 04:33:15;;;;;;;15.15;7.05;;;3.40;99.90;;;;;;5072270;28;20430;-56
2021/04/24 04:35:41;;;;;;;14.98;7.80;;;3.40;99.90;;;;;;5071366;28;20380;-56
2021/04/24 04:38:07;;;;;;;14.75;7.28;;;4.90;99.90;;;;;;5072612;28;20388;-56
2021/04/24 04:40:33;;;;;;;14.00;6.35;;;3.60;99.90;;;;;;5071622;28;20421;-56
2021/04/24 04:42:59;;;;;;;12.38;6.70;;;3.70;99.90;;;;;;5072366;28;20368;-56
2021/04/24 04:45:25;;;;;;;15.23;7.95;;;3.80;99.90;;;;;;5071062;28;20741;-56
2021/04/24 04:47:50;;;;;;;14.13;6.80;;;3.90;99.90;;;;;;5072033;28;20453;-55
2021/04/24 04:50:19;;;;;;;14.25;6.90;;;4.00;99.90;;;;;;5072119;28;20764;-60
2021/04/24 04:52:45;;;;;;;13.73;7.00;;;4.30;99.90;;;;;;5071262;28;20542;-58
2021/04/24 04:55:11;;;;;;;12.47;6.30;;;5.00;99.90;;;;;;5070841;28;20406;-58
2021/04/24 04:57:38;;;;;;;15.73;6.82;;;5.60;99.90;;;;;;5069924;28;20753;-58
2021/04/24 05:00:12;;;;;;;12.75;6.70;;;6.10;99.90;;;;;;5071678;28;20385;-57
2021/04/24 05:02:39;;;;;;;14.87;6.83;;;6.70;99.90;;;;;;5070797;28;20805;-56
2021/04/24 05:05:07;;;;;;;13.27;6.57;;;7.00;99.90;;;;;;5071700;28;20454;-57
2021/04/24 05:07:32;;;;;;;14.00;7.00;;;7.30;99.90;;;;;;5070845;28;20437;-57
2021/04/24 05:09:58;;;;;;;12.20;6.70;;;7.40;99.90;;;;;;5071626;28;20752;-57
2021/04/24 05:12:24;;;;;;;11.77;6.60;;;7.60;99.90;;;;;;5070785;28;20389;-55
2021/04/24 05:14:49;;;;;;;13.10;6.05;;;7.80;99.90;;;;;;5071260;28;20415;-56
2021/04/24 05:17:15;;;;;;;13.47;6.40;;;8.40;99.90;;;;;;5071568;28;20384;-56
2021/04/24 05:19:41;;;;;;;11.27;6.75;;;7.40;99.90;;;;;;5070845;28;20462;-58
2021/04/24 05:22:07;;;;;;;11.80;6.70;;;9.80;99.90;;;;;;5071423;28;20455;-56
2021/04/24 05:24:33;;;;;;;11.00;6.30;;;10.70;99.80;;;;;;5063993;28;20400;-56
2021/04/24 05:26:58;;;;;;;11.80;6.85;;;11.80;96.70;;;;;;5053787;28;20373;-57
2021/04/24 05:29:24;;;;;;;12.15;6.43;;;12.90;93.10;;;;;;5067163;28;20387;-55
2021/04/24 05:31:50;;;;;;;15.32;7.13;;;14.40;87.40;;;;;;5071274;28;20380;-57
2021/04/24 05:34:16;;;;;;;14.98;7.20;;;15.50;75.40;;;;;;5066916;28;20502;-57
2021/04/24 05:36:42;;;;;;;11.63;6.43;;;16.00;70.50;;;;;;5070033;28;20487;-57
2021/04/24 05:39:09;;;;;;;12.10;7.20;;;16.50;67.30;;;;;;5070779;28;20394;-56
2021/04/24 05:41:35;;;;;;;13.75;6.85;;;16.60;67.00;;;;;;5070406;28;20478;-57
2021/04/24 05:44:01;;;;;;;14.35;6.43;;;17.30;63.60;;;;;;5070895;28;20437;-57
2021/04/24 05:46:27;;;;;;;12.07;6.33;;;17.90;59.60;;;;;;5070156;28;20768;-57
2021/04/24 05:48:53;;;;;;;12.68;6.93;;;18.40;58.10;;;;;;5070656;28;20388;-57
2021/04/24 05:51:19;;;;;;;11.65;6.80;;;18.60;56.10;;;;;;5070522;28;20525;-55
2021/04/24 05:53:49;;;;;;;13.52;6.40;;;18.90;55.10;;;;;;5060332;28;20439;-54
2021/04/24 05:56:16;;;;;;;14.25;7.70;;;19.70;53.20;;;;;;5068754;28;20998;-54
2021/04/24 05:58:42;;;;;;;15.38;7.43;;;20.30;50.50;;;;;;5069093;28;20893;-55
2021/04/24 06:01:08;;;;;;;15.70;7.90;;;20.60;48.60;;;;;;5070180;28;20426;-55
2021/04/24 06:03:33;;;;;;;11.60;6.93;;;20.40;48.80;;;;;;5069321;28;20751;-55
2021/04/24 06:05:59;;;;;;;12.20;6.70;;;20.80;48.10;;;;;;5069881;28;20371;-55
2021/04/24 06:08:25;;;;;;;11.77;7.38;;;20.90;46.80;;;;;;5069514;28;20376;-54
2021/04/24 06:10:51;;;;;;;18.13;16.17;;;21.20;45.80;;;;;;5068283;28;20380;-56
2021/04/24 06:13:16;;;;;;;14.70;7.30;;;22.00;45.00;;;;;;5069310;28;20419;-57
2021/04/24 06:15:42;;;;;;;14.17;7.07;;;22.30;43.50;;;;;;5068935;28;21209;-58
2021/04/24 06:18:08;;;;;;;14.00;8.37;;;22.20;42.50;;;;;;5070042;28;20409;-56
2021/04/24 06:20:34;;;;;;;15.48;9.10;;;21.60;42.90;;;;;;5068888;28;20391;-57
2021/04/24 06:23:00;;;;;;;14.23;8.45;;;22.20;43.10;;;;;;5069273;28;20396;-56
2021/04/24 06:25:26;;;;;;;15.80;8.30;;;22.10;42.30;;;;;;5069524;28;20392;-57
2021/04/24 06:27:51;;;;;;;13.00;8.50;;;22.70;41.80;;;;;;5069540;28;20406;-56
2021/04/24 06:30:19;;;;;;;14.93;8.50;;;22.60;40.70;;;;;;5069662;28;20402;-57
2021/04/24 06:32:47;;;;;;;13.88;8.63;;;22.40;41.30;;;;;;5068917;28;20387;-55
2021/04/24 06:35:14;;;;;;;15.70;9.40;;;21.40;42.30;;;;;;5101680;28;20725;-57
2021/04/24 06:37:39;;;;;;;16.63;8.90;;;21.20;42.40;;;;;;5068708;28;20388;-56
2021/04/24 06:40:07;;;;;;;25.27;8.75;;;20.90;43.00;;;;;;5069417;28;20391;-57
2021/04/24 06:42:33;;;;;;;13.30;8.65;;;21.70;42.50;;;;;;5069278;28;20465;-56
2021/04/24 06:44:59;;;;;;;12.65;8.50;;;22.00;41.80;;;;;;5068825;28;20933;-58
2021/04/24 06:47:26;;;;;;;17.30;9.40;;;22.20;41.30;;;;;;5067969;28;20754;-55
2021/04/24 06:49:52;;;;;;;14.60;9.43;;;22.30;41.80;;;;;;5065523;28;20466;-54
2021/04/24 06:52:18;;;;;;;16.33;9.00;;;21.70;41.30;;;;;;5067617;28;20485;-54
2021/04/24 06:54:44;;;;;;;14.60;8.30;;;21.70;41.30;;;;;;5067890;28;20442;-54
2021/04/24 06:57:10;;;;;;;14.03;8.47;;;22.30;41.40;;;;;;5068942;28;21009;-54
2021/04/24 06:59:36;;;;;;;17.10;9.53;;;23.00;40.60;;;;;;5067170;28;20416;-54
2021/04/24 07:02:01;;;;;;;16.00;9.10;;;24.30;39.50;;;;;;5068433;28;20387;-52
2021/04/24 07:04:27;;;;;;;16.70;8.80;;;24.80;38.10;;;;;;5067786;28;20376;-53
2021/04/24 07:06:53;;;;;;;17.02;9.30;;;24.80;39.50;;;;;;5066886;28;20943;-52
2021/04/24 07:09:19;;;;;;;14.13;8.52;;;25.10;37.40;;;;;;5067413;28;20382;-52
2021/04/24 07:11:44;;;;;;;13.85;8.68;;;24.40;38.90;;;;;;5066832;28;20666;-54
2021/04/24 07:14:10;;;;;;;14.85;8.73;;;23.80;39.00;;;;;;5067924;28;20428;-53
2021/04/24 07:16:36;;;;;;;13.45;7.32;;;25.10;36.90;;;;;;5067730;28;20387;-54
2021/04/24 07:19:02;;;;;;;13.80;8.40;;;25.90;35.70;;;;;;5069053;28;20379;-53
2021/04/24 07:21:28;;;;;;;16.23;8.00;;;25.90;36.20;;;;;;5067762;28;20388;-54
2021/04/24 07:23:53;;;;;;;13.77;8.57;;;26.00;35.60;;;;;;5068624;28;20396;-52
2021/04/24 07:26:20;;;;;;;18.63;8.67;;;25.40;36.20;;;;;;5068681;28;20407;-52
2021/04/24 07:28:46;;;;;;;15.85;8.90;;;25.00;36.90;;;;;;5068216;28;20682;-58
2021/04/24 07:31:14;;;;;;;15.38;7.40;;;25.60;36.70;;;;;;5066033;28;20383;-58
2021/04/24 07:33:40;;;;;;;14.88;8.95;;;25.70;36.90;;;;;;5067793;28;20411;-57
2021/04/24 07:36:06;;;;;;;12.65;7.82;;;26.10;36.50;;;;;;5070355;28;20387;-55
2021/04/24 07:38:32;;;;;;;12.70;8.27;;;26.20;35.80;;;;;;5071700;28;20437;-55
2021/04/24 07:40:57;;;;;;;15.47;9.13;;;26.20;35.20;;;;;;5072066;28;20431;-53
2021/04/24 07:43:23;;;;;;;15.47;8.67;;;26.40;34.60;;;;;;5072241;28;20391;-53
2021/04/24 07:45:49;;;;;;;13.30;7.47;;;25.20;36.00;;;;;;5071224;28;20434;-53
2021/04/24 07:48:15;;;;;;;14.90;8.80;;;25.10;36.30;;;;;;5072289;28;20904;-52
2021/04/24 07:50:41;;;;;;;13.70;7.73;;;25.40;35.00;;;;;;5070663;28;20384;-53
2021/04/24 07:53:06;;;;;;;11.45;7.80;;;25.20;35.70;;;;;;5071411;28;20427;-53
2021/04/24 07:55:32;;;;;;;14.02;8.68;;;26.10;35.70;;;;;;5070729;28;21110;-52
2021/04/24 07:57:58;;;;;;;14.55;7.90;;;27.10;35.20;;;;;;5071949;28;20380;-53
2021/04/24 08:00:24;;;;;;;13.63;8.63;;;27.50;33.80;;;;;;5072265;28;20375;-52
2021/04/24 08:02:50;;;;;;;15.13;8.88;;;26.90;33.60;;;;;;5070992;28;20419;-53
2021/04/24 08:05:19;;;;;;;14.50;7.60;;;27.00;33.70;;;;;;5071790;28;20468;-53
2021/04/24 08:07:45;;;;;;;24.10;9.00;;;26.90;33.10;;;;;;5071410;28;20387;-52
2021/04/24 08:10:12;;;;;;;14.05;8.45;;;25.70;34.50;;;;;;5071637;28;20395;-54
2021/04/24 08:12:38;;;;;;;13.30;7.97;;;24.40;35.70;;;;;;5071508;28;20384;-53
2021/04/24 08:15:06;;;;;;;16.70;8.77;;;25.00;35.60;;;;;;5072497;28;20769;-53
2021/04/24 08:17:32;;;;;;;13.25;7.70;;;26.20;34.00;;;;;;5071674;28;20434;-53
2021/04/24 08:19:58;;;;;;;11.10;7.05;;;27.70;32.60;;;;;;5071464;28;20911;-55
2021/04/24 08:22:24;;;;;;;12.60;7.68;;;28.70;31.20;;;;;;5068255;28;20413;-55
2021/04/24 08:24:50;;;;;;;16.33;8.35;;;29.00;30.60;;;;;;5064216;28;20391;-56
2021/04/24 08:27:15;;;;;;;14.73;8.43;;;29.70;29.80;;;;;;5064095;28;20395;-55
2021/04/24 08:29:41;;;;;;;15.32;9.10;;;30.00;29.70;;;;;;5070538;28;20449;-55
2021/04/24 08:32:09;;;;;;;15.48;8.93;;;29.70;29.60;;;;;;5065137;28;20408;-55
2021/04/24 08:34:35;;;;;;;12.82;7.75;;;28.80;30.30;;;;;;5051155;28;20488;-53
2021/04/24 08:37:00;;;;;;;12.90;7.20;;;28.40;30.00;;;;;;5065604;28;20466;-55
2021/04/24 08:39:26;;;;;;;15.18;7.38;;;29.10;29.00;;;;;;5082013;28;21335;-55
2021/04/24 08:41:52;;;;;;;12.07;8.52;;;29.70;28.50;;;;;;5086439;28;20424;-55
2021/04/24 08:44:18;;;;;;;13.63;7.80;;;29.50;28.00;;;;;;5074747;28;20372;-55
2021/04/24 08:46:53;;;;;;;12.18;7.20;;;30.00;28.30;;;;;;5084623;28;20399;-55
2021/04/24 08:49:20;;;;;;;12.52;7.88;;;29.80;27.30;;;;;;5073288;28;20843;-55
2021/04/24 08:51:47;;;;;;;13.05;7.28;;;28.90;28.10;;;;;;5072376;28;20388;-53
2021/04/24 08:54:13;;;;;;;13.40;7.80;;;28.60;27.60;;;;;;5071423;28;20419;-54
2021/04/24 08:56:39;;;;;;;14.10;7.50;;;28.80;28.00;;;;;;5066766;28;20865;-53
2021/04/24 08:59:05;;;;;;;13.02;7.10;;;27.90;28.70;;;;;;5073305;28;20376;-53
2021/04/24 09:01:31;;;;;;;11.73;7.10;;;28.50;28.70;;;;;;5071347;28;20805;-54
2021/04/24 09:03:57;;;;;;;14.10;7.23;;;29.40;27.90;;;;;;5071806;28;20745;-53
2021/04/24 09:06:23;;;;;;;14.02;7.22;;;29.00;28.00;;;;;;5074185;28;20392;-53
2021/04/24 09:08:57;;;;;;;12.82;8.10;;;29.90;27.80;;;;;;5071095;28;20619;-53
2021/04/24 09:11:23;;;;;;;17.17;9.27;;;30.20;27.10;;;;;;5071694;28;20387;-53
2021/04/24 09:14:00;;;;;;;15.60;8.80;;;30.10;28.00;;;;;;5070770;28;20419;-53
2021/04/24 09:16:27;;;;;;;13.93;8.23;;;30.90;27.50;;;;;;5071049;28;20380;-53
2021/04/24 09:18:54;;;;;;;15.18;8.27;;;31.00;27.20;;;;;;5069463;28;20391;-53
2021/04/24 09:21:26;;;;;;;14.77;8.73;;;30.90;27.20;;;;;;5070794;28;20382;-53
2021/04/24 09:23:51;;;;;;;15.45;9.23;;;29.70;27.60;;;;;;5066049;28;20427;-53
2021/04/24 09:26:23;;;;;;;16.40;10.00;;;28.70;28.50;;;;;;5072777;28;20865;-53
2021/04/24 09:28:59;;;;;;;14.53;9.97;;;28.50;29.80;;;;;;5060698;28;20407;-53
2021/04/24 09:31:26;;;;;;;16.13;9.70;;;28.50;30.30;;;;;;5056632;28;20454;-55
2021/04/24 09:33:57;;;;;;;15.13;9.93;;;29.50;29.50;;;;;;5061313;28;20407;-55
2021/04/24 09:36:24;;;;;;;17.60;9.60;;;30.10;28.90;;;;;;5064192;28;20530;-55
2021/04/24 09:38:54;;;;;;;15.27;9.20;;;30.30;29.40;;;;;;5067333;28;20467;-53
2021/04/24 09:41:29;;;;;;;14.52;9.60;;;31.00;28.10;;;;;;5068299;28;20380;-54
2021/04/24 09:44:05;;;;;;;20.80;10.23;;;31.60;28.00;;;;;;5064227;28;20409;-53
2021/04/24 09:46:34;;;;;;;15.73;9.97;;;31.80;27.40;;;;;;5064179;28;20384;-54
2021/04/24 09:49:07;;;;;;;16.77;10.03;;;31.50;27.30;;;;;;5069494;28;20398;-53
2021/04/24 09:51:46;;;;;;;17.73;10.10;;;29.90;27.50;;;;;;5065128;28;20731;-55
2021/04/24 09:54:13;;;;;;;16.58;9.40;;;29.20;28.10;;;;;;5065663;28;20796;-53
2021/04/24 09:56:39;;;;;;;17.33;9.70;;;28.10;28.80;;;;;;5066257;28;20388;-53
2021/04/24 09:59:11;;;;;;;15.68;9.55;;;28.30;28.50;;;;;;5064390;28;20479;-53
2021/04/24 10:01:41;;;;;;;15.63;9.57;;;29.10;28.40;;;;;;5065044;28;20481;-53
2021/04/24 10:04:12;;;;;;;15.70;9.15;;;29.10;28.00;;;;;;5069496;28;20380;-53
2021/04/24 10:06:42;;;;;;;15.73;9.80;;;28.40;28.40;;;;;;5064713;28;20380;-53
2021/04/24 10:09:15;;;;;;;13.80;8.07;;;28.60;27.80;;;;;;5064727;28;20467;-53
2021/04/24 10:11:48;;;;;;;16.55;8.07;;;28.80;28.40;;;;;;5066102;28;20384;-53
2021/04/24 10:14:25;;;;;;;13.93;8.37;;;28.00;28.20;;;;;;5064587;28;20529;-53
2021/04/24 10:16:51;;;;;;;15.43;8.60;;;27.90;28.00;;;;;;5068363;28;20790;-53
2021/04/24 10:19:17;;;;;;;16.10;9.20;;;28.50;27.90;;;;;;5064596;28;20419;-53
2021/04/24 10:21:44;;;;;;;14.70;8.07;;;28.00;28.30;;;;;;5065508;28;20416;-53
2021/04/24 10:24:11;;;;;;;13.88;8.45;;;27.80;28.40;;;;;;5061738;28;20521;-53
2021/04/24 10:26:39;;;;;;;16.05;8.93;;;27.70;27.70;;;;;;5064425;28;20406;-53
2021/04/24 10:29:06;;;;;;;15.77;8.90;;;27.20;28.30;;;;;;5057647;28;20391;-53
2021/04/24 10:31:33;;;;;;;16.10;9.00;;;26.40;28.30;;;;;;5059347;28;20424;-56
2021/04/24 10:34:00;;;;;;;19.27;9.90;;;25.70;28.60;;;;;;5057654;28;20948;-53
2021/04/24 10:36:27;;;;;;;17.60;9.23;;;26.30;28.70;;;;;;5055187;28;20503;-54
2021/04/24 10:38:54;;;;;;;15.30;9.00;;;25.60;29.80;;;;;;5053883;28;20936;-55
2021/04/24 10:41:33;;;;;;;16.17;9.30;;;25.00;30.00;;;;;;5060377;28;20388;-54
2021/04/24 10:44:02;;;;;;;17.00;8.45;;;24.00;29.90;;;;;;5057901;28;20388;-54
2021/04/24 10:46:45;;;;;;;14.25;8.90;;;23.80;30.20;;;;;;5049753;28;20442;-54
2021/04/24 10:49:25;;;;;;;17.48;8.77;;;23.70;30.40;;;;;;5065220;28;20470;-54
2021/04/24 10:51:54;;;;;;;15.82;8.85;;;23.80;30.60;;;;;;5062975;28;20390;-54
2021/04/24 10:54:20;;;;;;;15.52;8.73;;;23.30;31.40;;;;;;5055232;28;20430;-54
2021/04/24 10:56:46;;;;;;;14.27;8.20;;;23.10;30.10;;;;;;5057936;28;20405;-54
2021/04/24 10:59:22;;;;;;;14.47;7.90;;;22.70;30.20;;;;;;5053548;28;20393;-54
2021/04/24 11:02:01;;;;;;;13.57;8.40;;;22.50;30.40;;;;;;5056619;28;20395;-54
2021/04/24 11:04:49;;;;;;;15.57;8.70;;;22.70;30.80;;;;;;5067050;28;20434;-54
2021/04/24 11:07:18;;;;;;;16.20;8.82;;;22.40;29.50;;;;;;5066693;28;20576;-54
2021/04/24 11:10:04;;;;;;;18.35;9.20;;;23.30;31.10;;;;;;5067441;28;20427;-54
2021/04/24 11:12:32;;;;;;;16.20;8.27;;;23.30;30.80;;;;;;5067400;28;20471;-54
2021/04/24 11:15:01;;;;;;;16.77;8.80;;;23.70;30.30;;;;;;5067606;28;20408;-54
2021/04/24 11:17:30;;;;;;;16.40;8.73;;;23.80;29.10;;;;;;5065860;28;20744;-54
2021/04/24 11:19:56;;;;;;;16.30;7.40;;;23.40;29.20;;;;;;5071579;28;20380;-54
2021/04/24 11:22:38;;;;;;;17.47;7.90;;;23.20;29.20;;;;;;5071349;28;20423;-55
2021/04/24 11:25:20;;;;;;;13.13;7.37;;;23.00;29.00;;;;;;5071648;28;20732;-54
2021/04/24 11:28:07;;;;;;;15.40;7.70;;;23.10;29.00;;;;;;5067440;28;20391;-54
2021/04/24 11:30:58;;;;;;;14.05;7.05;;;23.00;28.40;;;;;;5065980;28;20397;-54
2021/04/24 11:33:44;;;;;;;14.50;7.47;;;23.30;28.40;;;;;;5063812;28;20797;-54
2021/04/24 11:36:17;;;;;;;16.10;8.23;;;23.00;28.30;;;;;;5063524;28;20940;-54
2021/04/24 11:38:59;;;;;;;13.18;7.53;;;22.90;28.20;;;;;;5058887;28;20879;-53
2021/04/24 11:41:47;;;;;;;13.30;7.10;;;22.70;28.60;;;;;;5059301;28;20793;-54
2021/04/24 11:44:21;;;;;;;14.30;6.95;;;22.50;28.20;;;;;;5071963;28;20848;-54
2021/04/24 11:46:51;;;;;;;12.40;6.97;;;22.50;28.70;;;;;;5066503;28;20379;-54
2021/04/24 11:49:22;;;;;;;14.43;7.22;;;22.50;28.40;;;;;;5072238;28;20907;-54
2021/04/24 11:52:00;;;;;;;15.05;6.70;;;22.80;28.60;;;;;;5071725;28;20368;-53
2021/04/24 11:54:32;;;;;;;13.93;6.90;;;22.60;28.50;;;;;;5069562;28;20411;-54
2021/04/24 11:57:01;;;;;;;13.40;6.90;;;22.60;28.10;;;;;;5071545;28;20929;-54
2021/04/24 11:59:35;;;;;;;16.10;6.63;;;22.70;27.00;;;;;;5071622;28;20383;-52
2021/04/24 12:02:14;;;;;;;12.95;6.60;;;22.30;27.20;;;;;;5067611;28;20404;-52
2021/04/24 12:04:40;;;;;;;13.53;6.47;;;22.60;27.10;;;;;;5070138;28;20387;-52
2021/04/24 12:07:11;;;;;;;13.13;6.93;;;22.70;27.30;;;;;;5072289;28;20388;-54
2021/04/24 12:09:48;;;;;;;13.55;6.53;;;23.10;27.70;;;;;;5071940;28;20942;-54
2021/04/24 12:12:15;;;;;;;13.43;6.57;;;23.30;27.20;;;;;;5070371;28;20392;-54
2021/04/24 12:14:41;;;;;;;16.35;7.07;;;22.90;26.40;;;;;;5070945;28;20495;-54
2021/04/24 12:17:13;;;;;;;12.57;6.90;;;22.80;26.70;;;;;;5070951;28;20518;-54
2021/04/24 12:19:41;;;;;;;15.50;7.43;;;22.60;26.90;;;;;;5071117;28;20383;-54
2021/04/24 12:22:20;;;;;;;13.35;7.40;;;22.80;27.10;;;;;;5068294;28;20395;-53
2021/04/24 12:25:06;;;;;;;12.98;7.07;;;22.70;27.40;;;;;;5070918;28;20438;-54
2021/04/24 12:27:35;;;;;;;11.93;6.40;;;22.40;27.20;;;;;;5071317;28;20394;-54
2021/04/24 12:30:04;;;;;;;13.07;6.57;;;22.20;26.70;;;;;;5071367;28;20437;-53
2021/04/24 12:32:40;;;;;;;11.38;6.53;;;22.10;26.60;;;;;;5071266;28;20384;-53
2021/04/24 12:35:21;;;;;;;12.70;6.15;;;22.30;26.90;;;;;;5071061;28;20411;-54
2021/04/24 12:37:50;;;;;;;12.45;6.72;;;22.40;26.30;;;;;;5070492;28;20383;-55
2021/04/24 12:40:21;;;;;;;14.07;7.20;;;22.40;26.90;;;;;;5070397;28;20392;-54
2021/04/24 12:42:48;;;;;;;14.40;6.90;;;22.50;27.80;;;;;;5068077;28;20931;-54
2021/04/24 12:45:20;;;;;;;14.52;7.25;;;22.40;28.20;;;;;;5071115;28;20380;-54